VOMMWIMM

Guest
Details From VOMM - Chennai Intl
To WIMM - Medan/polonia
Flight Number -
Tags Generated
Created
Modified
Stats Distance 1,237 nm / 2,291 km
Max Altitude 0 ft / 0 m
Waypoints 3
Social Downloads 0
Likes 0
Share VATSIM

Download

Looking for another format? Having issues loading an existing format? Contact us
Advertisement - Login to hide

Notes

Generated

Route

VOMM ON WIMM

ID Type Via Altitude Latitude Longitude Leg Dist Tot Dist Heading (true) Name
O VOMM APT - 0 ft / 0 m 13.00194˚ 80.16584˚ - 0 nm - -
ON NDB - 0 ft / 0 m 3.56844˚ 98.67301˚ 1235 nm 1235 nm 116° / 118° MEDAN NDB
O WIMM APT - 0 ft / 0 m 3.54908˚ 98.66222˚ 1 nm 1237 nm 209° / 209° -

Altitude Profile

Advertisement - Login to hide

Weather


0- 5 10 15 20 25 30 35+ Temperature / ° C

Clouds and Precipitation
Forecast for 2017-12-14 12:00 UTC. Updated an hour ago

Ground ~20,000 ft ~40,000 ft Winds

VOMM

Details ICAO VOMM (MAA)
Name CHENNAI INTL
Region India
Timezone Asia/Kolkata (UTC+5.5)
Stats Elevation 52 ft / 16 m (AMSL)
Location 12.993860° 80.171442°
Runways 2
Magnetic Variation 1.204° W

METAR

VOMM 140830Z 05006KT 8000 SCT020 31/23 Q1013 NOSIG

Decode

TAF

TAF VOMM 140500Z 1406/1512 07010KT 6000 FEW018 BECMG 1418/1419 00000KT 5000 HZ BECMG 1421/1422 3000 BR TEMPO 1500/1503 1500 BR BECMG 1506/1507 07010KT 4000 HZ BECMG 1509/1510 6000

Decode

Departure Runways

ID Width Length Bearing (true) Bearing (mag) Surface Threshold Offset Overrun Length
07 148 ft / 45 m 12,003 ft / 3,659 m 68.87° 70.07° Asphalt 0 ft / 0 m 481 ft / 147 m
12 148 ft / 45 m 6,711 ft / 2,046 m 117.77° 118.97° Asphalt 0 ft / 0 m 0 ft / 0 m
25 148 ft / 45 m 12,003 ft / 3,659 m 248.88° 250.08° Asphalt 0 ft / 0 m 492 ft / 150 m
30 148 ft / 45 m 6,711 ft / 2,046 m 297.78° 298.98° Asphalt 1,130 ft / 344 m 0 ft / 0 m

WIMM

Details ICAO WIMM (MES)
Name Medan/Polonia
Region Indonesia
Timezone Asia/Jakarta (UTC+7.0)
Stats Elevation 90 ft / 27 m (AMSL)
Location 3.558057° 98.671716°
Runways 1
Magnetic Variation 0.321° W

METAR

WIMM 140800Z 33010KT 9999 FEW018 30/25 Q1008

Decode

TAF

TAF AMD WIMM 132330Z 1400/1500 26004KT 4000 BR FEW017CB SCT018 PROB30 TEMPO 1400/1402 -RA BECMG 1402/1404 35009KT 9999 BECMG 1412/1414 VRB04KT 4000 HZ

Decode

Destination Runways

ID Width Length Bearing (true) Bearing (mag) Surface Threshold Offset Overrun Length
05 148 ft / 45 m 9,531 ft / 2,905 m 46.55° 46.87° Asphalt 910 ft / 277 m 197 ft / 60 m
23 148 ft / 45 m 9,531 ft / 2,905 m 226.55° 226.87° Asphalt 0 ft / 0 m 325 ft / 99 m

Approach Navaids

Runway Type Ident Frequency Range Bearing (true) Bearing (mag) Slope Elevation
05 Localiser IMDN 110.10 MHz 18 nm / 33 km 47.68° 48.00° - 90 ft / 27 m (AMSL)
05 Glidescope IMDN 110.10 MHz 10 nm / 19 km 46.55° 46.87° 3.00° 90 ft / 27 m (AMSL)